Kayseri/Erkilet, Turkey
Current Conditions -  °F | °C
As of 7:20 PM on Monday 26 Jan 2015 (Local Time) from LTAU Reporting Station
Broken Clouds Broken Clouds  
Wind Chill: 33°   Ceiling: 4000
Heat Index: 37°   Visibility: 6mi
Dew Point: 34°   Wind: 6mph
Humidity: 87%   Direction: 10°N
Pressure: 30.12"   Gusts: NA
Location:  38.82°N, 35.45°E
Report Text: LTAU 261620Z 01005KT 9999 BKN040 BKN100 03/01 Q1020 RERA NOSIG
Loading
Personal Weather Stations






























Interactive Weather Map New forecast layout! Learn more

10-Day Weather Forecast

Advertisements
Track Severe Weather on mobile